Karla A — TCCR8 — position and weather

sailwx.info

Track history (hours):
 
Tides and Currents Weather Stations Pressure Air Temp Water Temp Dewpoint Dewpoint Depression Visibility Wind Speed Wind Dir Waves Ship Positions

Karla A

Last reported at 2017-May-18 11:41 UTC. Time now 2017-May-25 16:14 UTC.
Position N 37°22' E 025°55'.

Length 155 m; draft 9.3 m.

Type: Ship (hazmat cat A). MMSI: 271000744.

Date/timePositionNaut miles runAvg speedWind from/ knotsBaromVisibWave heightAir tempDewpointWater temp
2017-May-18 11:41N 37°22' E 025°55'210.9
2017-May-18 11:30N 37°23' E 025°54'510.7
2017-May-18 11:00N 37°28' E 025°51'510.4
2017-May-18 10:30N 37°33' E 025°50'510.4
2017-May-18 10:00N 37°39' E 025°50'  
2017-May-11 16:08N 43°20' E 014°25'1 9.7
2017-May-11 15:59N 43°21' E 014°24'42 8.5
2017-May-11 11:00N 43°37' E 013°30'2 0.2
2017-May-11 02:20N 43°39' E 013°29'0 0.1
2017-May-11 01:59N 43°39' E 013°29'0 0.0
2017-May-11 00:25N 43°39' E 013°29'1 0.3
2017-May-10 19:52N 43°39' E 013°31'48 8.2
2017-May-10 13:59N 44°24' E 013°06'713.7
2017-May-10 13:30N 44°31' E 013°03'710.6
2017-May-10 12:52N 44°37' E 013°00'410.9
2017-May-10 12:30N 44°41' E 012°58'511.0
2017-May-10 12:00N 44°46' E 012°56'611.2
2017-May-10 11:31N 44°51' E 012°53'611.2
2017-May-10 11:00N 44°56' E 012°50'611.5
2017-May-10 10:30N 45°01' E 012°46'611.2
2017-May-10 10:01N 45°06' E 012°43'611.2
2017-May-10 09:30N 45°09' E 012°36'510.5
2017-May-10 09:00N 45°13' E 012°30'510.0
2017-May-10 08:30N 45°17' E 012°26'510.8
2017-May-10 08:00N 45°20' E 012°20'4 8.0
2017-May-10 07:30N 45°22' E 012°15'4 8.0
2017-May-10 07:00N 45°26' E 012°16'1 2.1
2017-May-10 06:29N 45°27' E 012°15'0 0.0
2017-May-10 05:59N 45°27' E 012°15'0 0.0
2017-May-10 05:29N 45°27' E 012°15'0 0.0
2017-May-10 04:59N 45°27' E 012°15'0 0.0
2017-May-10 04:28N 45°27' E 012°15'0 0.0
2017-May-10 03:58N 45°27' E 012°15'0 0.0
2017-May-10 03:28N 45°27' E 012°15'0 0.0
2017-May-10 02:58N 45°27' E 012°15'0 0.0
2017-May-10 02:31N 45°27' E 012°15'0 0.0
2017-May-10 02:00N 45°27' E 012°15'0 0.0
2017-May-10 01:30N 45°27' E 012°15'0 0.0
2017-May-10 01:00N 45°27' E 012°15'0 0.0
2017-May-10 00:30N 45°27' E 012°15'0 0.0
2017-May-09 23:59N 45°27' E 012°15'0 0.0
2017-May-09 23:29N 45°27' E 012°15'0 0.0
2017-May-09 22:59N 45°27' E 012°15'0 0.0
2017-May-09 22:29N 45°27' E 012°15'0 0.0
2017-May-09 21:59N 45°27' E 012°15'0 0.0
2017-May-09 21:28N 45°27' E 012°15'0 0.0
2017-May-09 20:58N 45°27' E 012°15'0 0.0
2017-May-09 20:28N 45°27' E 012°15'0 0.0
2017-May-09 19:58N 45°27' E 012°15'0 0.0
2017-May-09 19:31N 45°27' E 012°15'0 0.0
2017-May-09 19:00N 45°27' E 012°15'0 0.0
2017-May-09 18:30N 45°27' E 012°15'0 0.0
2017-May-09 18:00N 45°27' E 012°15'0 0.0
2017-May-09 17:30N 45°27' E 012°15'0 0.0
2017-May-09 16:59N 45°27' E 012°15'0 0.0
2017-May-09 16:29N 45°27' E 012°15'0 0.0
2017-May-09 15:59N 45°27' E 012°15'0 0.0
2017-May-09 15:29N 45°27' E 012°15'0 0.0
2017-May-09 14:56N 45°27' E 012°15'0 0.0
2017-May-09 13:58N 45°27' E 012°15'0 0.0
2017-May-09 13:28N 45°27' E 012°15'0 0.0
2017-May-09 12:58N 45°27' E 012°15'0 0.0
2017-May-09 12:30N 45°27' E 012°15'0 0.0
2017-May-09 12:00N 45°27' E 012°15'0 0.0
2017-May-09 11:30N 45°27' E 012°15'0 0.0
2017-May-09 11:00N 45°27' E 012°15'0 0.0
2017-May-09 10:30N 45°27' E 012°15'0 0.0
2017-May-09 09:53N 45°27' E 012°15'0 0.0
2017-May-09 09:29N 45°27' E 012°15'0 0.0
2017-May-09 08:59N 45°27' E 012°15'0 0.0
2017-May-09 08:29N 45°27' E 012°15'0 0.0
2017-May-09 07:58N 45°27' E 012°15'0 0.0
2017-May-09 07:28N 45°27' E 012°15'0 0.0
2017-May-09 06:58N 45°27' E 012°15'0 0.0
2017-May-09 06:28N 45°27' E 012°15'0 0.0
2017-May-09 05:58N 45°27' E 012°15'0 0.0
2017-May-09 05:30N 45°27' E 012°15'0 0.0
2017-May-09 05:00N 45°27' E 012°15'0 0.0
2017-May-09 04:30N 45°27' E 012°15'0 0.0
2017-May-09 04:00N 45°27' E 012°15'0 0.0
2017-May-09 03:30N 45°27' E 012°15'0 0.0
2017-May-09 02:59N 45°27' E 012°15'0 0.0
2017-May-09 02:29N 45°27' E 012°15'0 0.0
2017-May-09 01:59N 45°27' E 012°15'0 0.0
2017-May-09 01:29N 45°27' E 012°15'0 0.0
2017-May-09 00:58N 45°27' E 012°15'0 0.0
2017-May-09 00:28N 45°27' E 012°15'0 0.0
2017-May-08 23:58N 45°27' E 012°15'0 0.0
2017-May-08 23:28N 45°27' E 012°15'0 0.0
2017-May-08 22:58N 45°27' E 012°15'0 0.0
2017-May-08 22:30N 45°27' E 012°15'0 0.0
2017-May-08 22:00N 45°27' E 012°15'0 0.0
2017-May-08 21:27N 45°27' E 012°15'0 0.0
2017-May-08 21:00N 45°27' E 012°15'0 0.0
2017-May-08 20:24N 45°27' E 012°15'0 0.0
2017-May-08 19:59N 45°27' E 012°15'0 0.0
2017-May-08 19:29N 45°27' E 012°15'0 0.0
2017-May-08 18:59N 45°27' E 012°15'1 1.5
2017-May-08 18:30N 45°27' E 012°16'4 8.3
2017-May-08 18:00N 45°23' E 012°15'5 9.2
2017-May-08 17:30N 45°20' E 012°21'3 6.7
2017-May-08 17:00N 45°19' E 012°25'612.8
2017-May-08 16:31N 45°19' E 012°34'612.8
2017-May-08 16:00N 45°21' E 012°43'612.1
2017-May-08 15:30N 45°25' E 012°50'612.3
2017-May-08 15:00N 45°27' E 012°58'1212.2
2017-May-08 14:00N 45°32' E 013°14'612.2
2017-May-08 13:30N 45°34' E 013°22'612.1
2017-May-08 13:00N 45°37' E 013°30'511.0
2017-May-08 12:30N 45°37' E 013°38'510.5
2017-May-08 11:59N 45°33' E 013°43'  
Track history (hours):
 
Tides and Currents Weather Stations Pressure Air Temp Water Temp Dewpoint Dewpoint Depression Visibility Wind Speed Wind Dir Waves Ship Positions

Karla A

Last reported at 2017-May-18 11:41 UTC. Time now 2017-May-25 16:14 UTC.
Position N 37°22' E 025°55'.

Length 155 m; draft 9.3 m.

Type: Ship (hazmat cat A). MMSI: 271000744.

Date/timePositionNaut miles runAvg speedWind from/ knotsBaromVisibWave heightAir tempDewpointWater temp
2017-May-18 11:41N 37°22' E 025°55'210.9
2017-May-18 11:30N 37°23' E 025°54'510.7
2017-May-18 11:00N 37°28' E 025°51'510.4
2017-May-18 10:30N 37°33' E 025°50'510.4
2017-May-18 10:00N 37°39' E 025°50'  
2017-May-11 16:08N 43°20' E 014°25'1 9.7
2017-May-11 15:59N 43°21' E 014°24'42 8.5
2017-May-11 11:00N 43°37' E 013°30'2 0.2
2017-May-11 02:20N 43°39' E 013°29'0 0.1
2017-May-11 01:59N 43°39' E 013°29'0 0.0
2017-May-11 00:25N 43°39' E 013°29'1 0.3
2017-May-10 19:52N 43°39' E 013°31'48 8.2
2017-May-10 13:59N 44°24' E 013°06'713.7
2017-May-10 13:30N 44°31' E 013°03'710.6
2017-May-10 12:52N 44°37' E 013°00'410.9
2017-May-10 12:30N 44°41' E 012°58'511.0
2017-May-10 12:00N 44°46' E 012°56'611.2
2017-May-10 11:31N 44°51' E 012°53'611.2
2017-May-10 11:00N 44°56' E 012°50'611.5
2017-May-10 10:30N 45°01' E 012°46'611.2
2017-May-10 10:01N 45°06' E 012°43'611.2
2017-May-10 09:30N 45°09' E 012°36'510.5
2017-May-10 09:00N 45°13' E 012°30'510.0
2017-May-10 08:30N 45°17' E 012°26'510.8
2017-May-10 08:00N 45°20' E 012°20'4 8.0
2017-May-10 07:30N 45°22' E 012°15'4 8.0
2017-May-10 07:00N 45°26' E 012°16'1 2.1
2017-May-10 06:29N 45°27' E 012°15'0 0.0
2017-May-10 05:59N 45°27' E 012°15'0 0.0
2017-May-10 05:29N 45°27' E 012°15'0 0.0
2017-May-10 04:59N 45°27' E 012°15'0 0.0
2017-May-10 04:28N 45°27' E 012°15'0 0.0
2017-May-10 03:58N 45°27' E 012°15'0 0.0
2017-May-10 03:28N 45°27' E 012°15'0 0.0
2017-May-10 02:58N 45°27' E 012°15'0 0.0
2017-May-10 02:31N 45°27' E 012°15'0 0.0
2017-May-10 02:00N 45°27' E 012°15'0 0.0
2017-May-10 01:30N 45°27' E 012°15'0 0.0
2017-May-10 01:00N 45°27' E 012°15'0 0.0
2017-May-10 00:30N 45°27' E 012°15'0 0.0
2017-May-09 23:59N 45°27' E 012°15'0 0.0
2017-May-09 23:29N 45°27' E 012°15'0 0.0
2017-May-09 22:59N 45°27' E 012°15'0 0.0
2017-May-09 22:29N 45°27' E 012°15'0 0.0
2017-May-09 21:59N 45°27' E 012°15'0 0.0
2017-May-09 21:28N 45°27' E 012°15'0 0.0
2017-May-09 20:58N 45°27' E 012°15'0 0.0
2017-May-09 20:28N 45°27' E 012°15'0 0.0
2017-May-09 19:58N 45°27' E 012°15'0 0.0
2017-May-09 19:31N 45°27' E 012°15'0 0.0
2017-May-09 19:00N 45°27' E 012°15'0 0.0
2017-May-09 18:30N 45°27' E 012°15'0 0.0
2017-May-09 18:00N 45°27' E 012°15'0 0.0
2017-May-09 17:30N 45°27' E 012°15'0 0.0
2017-May-09 16:59N 45°27' E 012°15'0 0.0
2017-May-09 16:29N 45°27' E 012°15'0 0.0
2017-May-09 15:59N 45°27' E 012°15'0 0.0
2017-May-09 15:29N 45°27' E 012°15'0 0.0
2017-May-09 14:56N 45°27' E 012°15'0 0.0
2017-May-09 13:58N 45°27' E 012°15'0 0.0
2017-May-09 13:28N 45°27' E 012°15'0 0.0
2017-May-09 12:58N 45°27' E 012°15'0 0.0
2017-May-09 12:30N 45°27' E 012°15'0 0.0
2017-May-09 12:00N 45°27' E 012°15'0 0.0
2017-May-09 11:30N 45°27' E 012°15'0 0.0
2017-May-09 11:00N 45°27' E 012°15'0 0.0
2017-May-09 10:30N 45°27' E 012°15'0 0.0
2017-May-09 09:53N 45°27' E 012°15'0 0.0
2017-May-09 09:29N 45°27' E 012°15'0 0.0
2017-May-09 08:59N 45°27' E 012°15'0 0.0
2017-May-09 08:29N 45°27' E 012°15'0 0.0
2017-May-09 07:58N 45°27' E 012°15'0 0.0
2017-May-09 07:28N 45°27' E 012°15'0 0.0
2017-May-09 06:58N 45°27' E 012°15'0 0.0
2017-May-09 06:28N 45°27' E 012°15'0 0.0
2017-May-09 05:58N 45°27' E 012°15'0 0.0
2017-May-09 05:30N 45°27' E 012°15'0 0.0
2017-May-09 05:00N 45°27' E 012°15'0 0.0
2017-May-09 04:30N 45°27' E 012°15'0 0.0
2017-May-09 04:00N 45°27' E 012°15'0 0.0
2017-May-09 03:30N 45°27' E 012°15'0 0.0
2017-May-09 02:59N 45°27' E 012°15'0 0.0
2017-May-09 02:29N 45°27' E 012°15'0 0.0
2017-May-09 01:59N 45°27' E 012°15'0 0.0
2017-May-09 01:29N 45°27' E 012°15'0 0.0
2017-May-09 00:58N 45°27' E 012°15'0 0.0
2017-May-09 00:28N 45°27' E 012°15'0 0.0
2017-May-08 23:58N 45°27' E 012°15'0 0.0
2017-May-08 23:28N 45°27' E 012°15'0 0.0
2017-May-08 22:58N 45°27' E 012°15'0 0.0
2017-May-08 22:30N 45°27' E 012°15'0 0.0
2017-May-08 22:00N 45°27' E 012°15'0 0.0
2017-May-08 21:27N 45°27' E 012°15'0 0.0
2017-May-08 21:00N 45°27' E 012°15'0 0.0
2017-May-08 20:24N 45°27' E 012°15'0 0.0
2017-May-08 19:59N 45°27' E 012°15'0 0.0
2017-May-08 19:29N 45°27' E 012°15'0 0.0
2017-May-08 18:59N 45°27' E 012°15'1 1.5
2017-May-08 18:30N 45°27' E 012°16'4 8.3
2017-May-08 18:00N 45°23' E 012°15'5 9.2
2017-May-08 17:30N 45°20' E 012°21'3 6.7
2017-May-08 17:00N 45°19' E 012°25'612.8
2017-May-08 16:31N 45°19' E 012°34'612.8
2017-May-08 16:00N 45°21' E 012°43'612.1
2017-May-08 15:30N 45°25' E 012°50'612.3
2017-May-08 15:00N 45°27' E 012°58'1212.2
2017-May-08 14:00N 45°32' E 013°14'612.2
2017-May-08 13:30N 45°34' E 013°22'612.1
2017-May-08 13:00N 45°37' E 013°30'511.0
2017-May-08 12:30N 45°37' E 013°38'510.5
2017-May-08 11:59N 45°33' E 013°43'  

Dump ship's entire track history